sensor_id;sensor_type;location;lat;lon;timestamp;pressure;altitude;pressure_sealevel;temperature;humidity
13312;BME280;34033;48.672;9.376;2022-10-17T00:00:22;99053.47;;;16.43;75.25
13312;BME280;34033;48.672;9.376;2022-10-17T00:02:47;99056.72;;;16.42;75.05
13312;BME280;34033;48.672;9.376;2022-10-17T00:05:13;99058.34;;;16.39;74.79
13312;BME280;34033;48.672;9.376;2022-10-17T00:07:38;99056.72;;;16.38;74.66
13312;BME280;34033;48.672;9.376;2022-10-17T00:10:06;99053.50;;;16.40;74.29
13312;BME280;34033;48.672;9.376;2022-10-17T00:12:31;99062.75;;;16.40;74.16
13312;BME280;34033;48.672;9.376;2022-10-17T00:14:57;99067.19;;;16.38;74.04
13312;BME280;34033;48.672;9.376;2022-10-17T00:17:22;99063.22;;;16.35;73.64
13312;BME280;34033;48.672;9.376;2022-10-17T00:19:48;99069.28;;;16.30;73.46
13312;BME280;34033;48.672;9.376;2022-10-17T00:22:13;99074.16;;;16.26;73.89
13312;BME280;34033;48.672;9.376;2022-10-17T00:24:39;99067.72;;;16.25;73.97
13312;BME280;34033;48.672;9.376;2022-10-17T00:27:04;99078.56;;;16.27;74.46
13312;BME280;34033;48.672;9.376;2022-10-17T00:29:29;99076.09;;;16.36;75.28
13312;BME280;34033;48.672;9.376;2022-10-17T00:31:55;99085.75;;;16.42;74.92
13312;BME280;34033;48.672;9.376;2022-10-17T00:34:21;99084.94;;;16.42;74.42
13312;BME280;34033;48.672;9.376;2022-10-17T00:36:46;99086.56;;;16.39;74.03
13312;BME280;34033;48.672;9.376;2022-10-17T00:39:11;99086.56;;;16.39;74.43
13312;BME280;34033;48.672;9.376;2022-10-17T00:41:37;99090.97;;;16.40;74.67
13312;BME280;34033;48.672;9.376;2022-10-17T00:44:05;99088.19;;;16.37;74.15
13312;BME280;34033;48.672;9.376;2022-10-17T00:46:34;99085.00;;;16.31;73.81
13312;BME280;34033;48.672;9.376;2022-10-17T00:49:05;99086.66;;;16.25;73.90
13312;BME280;34033;48.672;9.376;2022-10-17T00:51:53;99081.88;;;16.18;73.92
13312;BME280;34033;48.672;9.376;2022-10-17T00:54:22;99084.28;;;16.16;74.01
13312;BME280;34033;48.672;9.376;2022-10-17T00:56:50;99080.69;;;16.12;74.12
13312;BME280;34033;48.672;9.376;2022-10-17T00:59:17;99084.75;;;16.08;74.24
13312;BME280;34033;48.672;9.376;2022-10-17T01:01:52;99095.25;;;16.04;74.21
13312;BME280;34033;48.672;9.376;2022-10-17T01:04:19;99090.81;;;16.03;73.82
13312;BME280;34033;48.672;9.376;2022-10-17T01:06:44;99080.75;;;16.02;74.32
13312;BME280;34033;48.672;9.376;2022-10-17T01:09:09;99086.78;;;16.00;74.37
13312;BME280;34033;48.672;9.376;2022-10-17T01:11:39;99082.78;;;15.98;74.06
13312;BME280;34033;48.672;9.376;2022-10-17T01:22:48;99087.66;;;15.90;73.28
13312;BME280;34033;48.672;9.376;2022-10-17T01:25:26;99089.31;;;15.88;73.20
13312;BME280;34033;48.672;9.376;2022-10-17T01:28:08;99088.50;;;15.87;73.14
13312;BME280;34033;48.672;9.376;2022-10-17T01:39:19;99091.75;;;15.82;73.51
13312;BME280;34033;48.672;9.376;2022-10-17T01:41:54;99097.78;;;15.80;73.76
13312;BME280;34033;48.672;9.376;2022-10-17T01:47:14;99081.66;;;15.84;73.43
13312;BME280;34033;48.672;9.376;2022-10-17T01:49:44;99080.84;;;15.84;73.00
13312;BME280;34033;48.672;9.376;2022-10-17T01:52:14;99078.03;;;15.84;73.16
13312;BME280;34033;48.672;9.376;2022-10-17T01:54:42;99078.06;;;15.80;72.98
13312;BME280;34033;48.672;9.376;2022-10-17T01:59:54;99078.91;;;15.70;72.81
13312;BME280;34033;48.672;9.376;2022-10-17T02:02:20;99080.50;;;15.68;72.74
13312;BME280;34033;48.672;9.376;2022-10-17T02:04:48;99080.13;;;15.62;73.02
13312;BME280;34033;48.672;9.376;2022-10-17T02:07:15;99084.59;;;15.56;72.90
13312;BME280;34033;48.672;9.376;2022-10-17T02:09:41;99077.34;;;15.55;72.65
13312;BME280;34033;48.672;9.376;2022-10-17T02:25:46;99075.75;;;15.47;71.93
13312;BME280;34033;48.672;9.376;2022-10-17T02:28:19;99075.72;;;15.51;71.98
13312;BME280;34033;48.672;9.376;2022-10-17T02:34:17;99082.16;;;15.51;72.04
13312;BME280;34033;48.672;9.376;2022-10-17T02:36:52;99084.59;;;15.53;71.78
13312;BME280;34033;48.672;9.376;2022-10-17T02:39:22;99099.91;;;15.48;71.73
13312;BME280;34033;48.672;9.376;2022-10-17T02:41:50;99096.66;;;15.46;71.59
13312;BME280;34033;48.672;9.376;2022-10-17T02:44:16;99095.06;;;15.45;71.65
13312;BME280;34033;48.672;9.376;2022-10-17T02:46:44;99093.06;;;15.42;71.61
13312;BME280;34033;48.672;9.376;2022-10-17T02:49:22;99092.25;;;15.41;71.77
13312;BME280;34033;48.672;9.376;2022-10-17T02:51:56;99098.28;;;15.47;71.83
13312;BME280;34033;48.672;9.376;2022-10-17T02:54:40;99099.91;;;15.52;71.77
13312;BME280;34033;48.672;9.376;2022-10-17T02:57:19;99106.75;;;15.54;71.41
13312;BME280;34033;48.672;9.376;2022-10-17T02:59:46;99112.75;;;15.56;71.12
13312;BME280;34033;48.672;9.376;2022-10-17T03:02:13;99112.75;;;15.56;71.05
13312;BME280;34033;48.672;9.376;2022-10-17T03:04:42;99120.44;;;15.52;70.98
13312;BME280;34033;48.672;9.376;2022-10-17T03:07:07;99105.13;;;15.46;71.28
13312;BME280;34033;48.672;9.376;2022-10-17T03:09:32;99111.56;;;15.39;71.07
13312;BME280;34033;48.672;9.376;2022-10-17T03:11:58;99107.16;;;15.35;71.36
13312;BME280;34033;48.672;9.376;2022-10-17T03:14:23;99102.34;;;15.32;71.24
13312;BME280;34033;48.672;9.376;2022-10-17T03:16:48;99107.19;;;15.28;71.24
13312;BME280;34033;48.672;9.376;2022-10-17T03:19:14;99114.44;;;15.25;72.10
13312;BME280;34033;48.672;9.376;2022-10-17T03:21:39;99115.25;;;15.26;72.16
13312;BME280;34033;48.672;9.376;2022-10-17T03:24:04;99116.44;;;15.25;72.15
13312;BME280;34033;48.672;9.376;2022-10-17T03:26:30;99116.84;;;15.23;71.81
13312;BME280;34033;48.672;9.376;2022-10-17T03:28:55;99129.75;;;15.21;71.76
13312;BME280;34033;48.672;9.376;2022-10-17T03:31:21;99129.75;;;15.21;71.72
13312;BME280;34033;48.672;9.376;2022-10-17T03:33:47;99134.56;;;15.17;71.54
13312;BME280;34033;48.672;9.376;2022-10-17T03:36:14;99132.56;;;15.14;71.19
13312;BME280;34033;48.672;9.376;2022-10-17T03:38:40;99130.56;;;15.07;71.18
13312;BME280;34033;48.672;9.376;2022-10-17T03:41:07;99140.22;;;15.02;71.13
13312;BME280;34033;48.672;9.376;2022-10-17T03:43:33;99139.44;;;14.98;71.60
13312;BME280;34033;48.672;9.376;2022-10-17T03:45:59;99141.03;;;14.99;71.99
13312;BME280;34033;48.672;9.376;2022-10-17T03:48:26;99137.41;;;14.99;71.56
13312;BME280;34033;48.672;9.376;2022-10-17T03:50:57;99137.78;;;15.01;71.83
13312;BME280;34033;48.672;9.376;2022-10-17T03:53:23;99137.41;;;15.02;71.88
13312;BME280;34033;48.672;9.376;2022-10-17T03:55:48;99136.19;;;15.03;71.61
13312;BME280;34033;48.672;9.376;2022-10-17T03:58:14;99135.41;;;14.99;71.47
13312;BME280;34033;48.672;9.376;2022-10-17T04:00:39;99136.59;;;14.98;71.55
13312;BME280;34033;48.672;9.376;2022-10-17T04:03:04;99145.03;;;14.95;72.04
13312;BME280;34033;48.672;9.376;2022-10-17T04:05:30;99151.06;;;14.90;71.77
13312;BME280;34033;48.672;9.376;2022-10-17T04:07:55;99145.88;;;14.88;71.70
13312;BME280;34033;48.672;9.376;2022-10-17T04:10:20;99146.25;;;14.90;71.95
13312;BME280;34033;48.672;9.376;2022-10-17T04:12:46;99158.72;;;14.89;71.81
13312;BME280;34033;48.672;9.376;2022-10-17T04:15:11;99151.50;;;14.88;71.82
13312;BME280;34033;48.672;9.376;2022-10-17T04:17:37;99145.84;;;14.92;71.68
13312;BME280;34033;48.672;9.376;2022-10-17T04:20:02;99155.09;;;14.92;71.18
13312;BME280;34033;48.672;9.376;2022-10-17T04:22:28;99151.50;;;14.92;70.51
13312;BME280;34033;48.672;9.376;2022-10-17T04:24:53;99156.31;;;14.91;70.72
13312;BME280;34033;48.672;9.376;2022-10-17T04:27:18;99154.28;;;14.85;70.53
13312;BME280;34033;48.672;9.376;2022-10-17T04:29:44;99153.06;;;14.79;71.12
13312;BME280;34033;48.672;9.376;2022-10-17T04:32:09;99160.72;;;14.78;71.34
13312;BME280;34033;48.672;9.376;2022-10-17T04:34:35;99169.16;;;14.78;72.03
13312;BME280;34033;48.672;9.376;2022-10-17T04:37:00;99162.34;;;14.76;71.66
13312;BME280;34033;48.672;9.376;2022-10-17T04:39:25;99165.53;;;14.74;71.66
13312;BME280;34033;48.672;9.376;2022-10-17T04:41:51;99169.97;;;14.72;71.67
13312;BME280;34033;48.672;9.376;2022-10-17T04:44:16;99170.78;;;14.69;71.65
13312;BME280;34033;48.672;9.376;2022-10-17T04:46:42;99169.56;;;14.66;71.24
13312;BME280;34033;48.672;9.376;2022-10-17T04:49:07;99167.94;;;14.61;71.44
13312;BME280;34033;48.672;9.376;2022-10-17T04:51:33;99165.53;;;14.60;71.38
13312;BME280;34033;48.672;9.376;2022-10-17T04:53:58;99169.94;;;14.61;71.94
13312;BME280;34033;48.672;9.376;2022-10-17T04:56:24;99181.63;;;14.63;72.01
13312;BME280;34033;48.672;9.376;2022-10-17T04:58:50;99175.59;;;14.68;72.32
13312;BME280;34033;48.672;9.376;2022-10-17T05:01:18;99179.59;;;14.67;71.55
13312;BME280;34033;48.672;9.376;2022-10-17T05:03:45;99178.00;;;14.70;71.50
13312;BME280;34033;48.672;9.376;2022-10-17T05:06:16;99179.19;;;14.72;71.12
13312;BME280;34033;48.672;9.376;2022-10-17T05:08:43;99182.00;;;14.72;70.99
13312;BME280;34033;48.672;9.376;2022-10-17T05:11:23;99178.00;;;14.73;71.26
13312;BME280;34033;48.672;9.376;2022-10-17T05:13:58;99182.03;;;14.76;71.12
13312;BME280;34033;48.672;9.376;2022-10-17T05:16:24;99174.00;;;14.71;70.67
13312;BME280;34033;48.672;9.376;2022-10-17T05:18:52;99178.81;;;14.63;70.99
13312;BME280;34033;48.672;9.376;2022-10-17T05:21:19;99176.78;;;14.56;70.97
13312;BME280;34033;48.672;9.376;2022-10-17T05:23:45;99178.78;;;14.56;71.05
13312;BME280;34033;48.672;9.376;2022-10-17T05:26:11;99181.22;;;14.54;71.25
13312;BME280;34033;48.672;9.376;2022-10-17T05:28:37;99168.34;;;14.53;71.14
13312;BME280;34033;48.672;9.376;2022-10-17T05:31:06;99185.22;;;14.56;71.41
13312;BME280;34033;48.672;9.376;2022-10-17T05:33:32;99169.56;;;14.59;71.21
13312;BME280;34033;48.672;9.376;2022-10-17T05:35:58;99173.97;;;14.60;71.27
13312;BME280;34033;48.672;9.376;2022-10-17T05:38:24;99179.59;;;14.64;71.00
13312;BME280;34033;48.672;9.376;2022-10-17T05:40:49;99175.59;;;14.65;70.60
13312;BME280;34033;48.672;9.376;2022-10-17T05:43:14;99174.38;;;14.58;70.73
13312;BME280;34033;48.672;9.376;2022-10-17T05:45:40;99179.59;;;14.53;70.89
13312;BME280;34033;48.672;9.376;2022-10-17T05:48:05;99189.63;;;14.50;71.44
13312;BME280;34033;48.672;9.376;2022-10-17T05:50:31;99181.19;;;14.50;71.43
13312;BME280;34033;48.672;9.376;2022-10-17T05:52:56;99190.03;;;14.56;71.44
13312;BME280;34033;48.672;9.376;2022-10-17T05:55:22;99201.28;;;14.56;71.57
13312;BME280;34033;48.672;9.376;2022-10-17T05:57:48;99204.09;;;14.56;71.46
13312;BME280;34033;48.672;9.376;2022-10-17T06:00:13;99202.53;;;14.55;72.06
13312;BME280;34033;48.672;9.376;2022-10-17T06:02:39;99202.53;;;14.55;72.36
13312;BME280;34033;48.672;9.376;2022-10-17T06:05:04;99205.72;;;14.57;72.29
13312;BME280;34033;48.672;9.376;2022-10-17T06:07:30;99210.56;;;14.60;72.04
13312;BME280;34033;48.672;9.376;2022-10-17T06:09:55;99206.13;;;14.63;71.42
13312;BME280;34033;48.672;9.376;2022-10-17T06:12:22;99209.78;;;14.70;71.44
13312;BME280;34033;48.672;9.376;2022-10-17T06:14:47;99208.56;;;14.71;71.09
13312;BME280;34033;48.672;9.376;2022-10-17T06:17:12;99215.41;;;14.74;71.09
13312;BME280;34033;48.672;9.376;2022-10-17T06:19:37;99215.41;;;14.74;71.00
13312;BME280;34033;48.672;9.376;2022-10-17T06:22:05;99215.78;;;14.72;71.25
13312;BME280;34033;48.672;9.376;2022-10-17T06:24:30;99212.59;;;14.70;71.38
13312;BME280;34033;48.672;9.376;2022-10-17T06:26:56;99214.19;;;14.64;71.54
13312;BME280;34033;48.672;9.376;2022-10-17T06:29:21;99212.56;;;14.67;71.88
13312;BME280;34033;48.672;9.376;2022-10-17T06:31:47;99220.63;;;14.68;72.27
13312;BME280;34033;48.672;9.376;2022-10-17T06:34:12;99211.78;;;14.66;72.18
13312;BME280;34033;48.672;9.376;2022-10-17T06:36:38;99227.44;;;14.67;72.21
13312;BME280;34033;48.672;9.376;2022-10-17T06:39:03;99230.66;;;14.73;72.36
13312;BME280;34033;48.672;9.376;2022-10-17T06:41:29;99240.75;;;14.77;72.44
13312;BME280;34033;48.672;9.376;2022-10-17T06:43:54;99230.28;;;14.78;72.21
13312;BME280;34033;48.672;9.376;2022-10-17T06:46:19;99233.94;;;14.82;72.49
13312;BME280;34033;48.672;9.376;2022-10-17T06:48:45;99228.69;;;14.91;72.59
13312;BME280;34033;48.672;9.376;2022-10-17T06:51:11;99238.75;;;14.92;72.48
13312;BME280;34033;48.672;9.376;2022-10-17T06:53:38;99233.53;;;14.90;72.29
13312;BME280;34033;48.672;9.376;2022-10-17T06:56:04;99238.38;;;14.93;72.49
13312;BME280;34033;48.672;9.376;2022-10-17T06:58:33;99246.81;;;15.04;73.58
13312;BME280;34033;48.672;9.376;2022-10-17T07:01:05;99244.81;;;15.12;72.92
13312;BME280;34033;48.672;9.376;2022-10-17T07:03:31;99249.66;;;15.15;72.79
13312;BME280;34033;48.672;9.376;2022-10-17T07:05:57;99255.28;;;15.15;72.67
13312;BME280;34033;48.672;9.376;2022-10-17T07:08:23;99256.91;;;15.16;72.73
13312;BME280;34033;48.672;9.376;2022-10-17T07:10:49;99257.69;;;15.20;73.10
13312;BME280;34033;48.672;9.376;2022-10-17T07:13:14;99260.91;;;15.36;73.68
13312;BME280;34033;48.672;9.376;2022-10-17T07:15:40;99263.31;;;15.44;73.13
13312;BME280;34033;48.672;9.376;2022-10-17T07:18:06;99269.34;;;15.50;73.05
13312;BME280;34033;48.672;9.376;2022-10-17T07:20:31;99268.56;;;15.57;72.87
13312;BME280;34033;48.672;9.376;2022-10-17T07:22:57;99278.63;;;15.68;72.75
13312;BME280;34033;48.672;9.376;2022-10-17T07:25:22;99281.44;;;15.68;73.00
13312;BME280;34033;48.672;9.376;2022-10-17T07:27:52;99294.75;;;15.68;73.54
13312;BME280;34033;48.672;9.376;2022-10-17T07:30:18;99293.94;;;15.67;74.05
13312;BME280;34033;48.672;9.376;2022-10-17T07:32:44;99290.31;;;15.53;74.47
13312;BME280;34033;48.672;9.376;2022-10-17T07:35:10;99283.47;;;15.54;74.98
13312;BME280;34033;48.672;9.376;2022-10-17T07:37:35;99282.66;;;15.67;74.88
13312;BME280;34033;48.672;9.376;2022-10-17T07:40:02;99292.31;;;15.73;74.86
13312;BME280;34033;48.672;9.376;2022-10-17T07:42:28;99290.28;;;15.77;74.94
13312;BME280;34033;48.672;9.376;2022-10-17T07:44:53;99295.13;;;15.84;74.51
13312;BME280;34033;48.672;9.376;2022-10-17T07:47:19;99297.53;;;15.93;74.74
13312;BME280;34033;48.672;9.376;2022-10-17T07:49:45;99291.06;;;16.03;74.45
13312;BME280;34033;48.672;9.376;2022-10-17T07:52:14;99301.53;;;16.09;73.96
13312;BME280;34033;48.672;9.376;2022-10-17T07:54:40;99286.56;;;16.16;74.19
13312;BME280;34033;48.672;9.376;2022-10-17T07:57:05;99296.22;;;16.29;73.94
13312;BME280;34033;48.672;9.376;2022-10-17T07:59:36;99295.00;;;16.37;73.40
13312;BME280;34033;48.672;9.376;2022-10-17T08:02:02;99295.78;;;16.41;73.45
13312;BME280;34033;48.672;9.376;2022-10-17T08:04:27;99298.56;;;16.45;73.51
13312;BME280;34033;48.672;9.376;2022-10-17T08:06:52;99294.94;;;16.51;73.75
13312;BME280;34033;48.672;9.376;2022-10-17T08:09:18;99299.75;;;16.58;73.15
13312;BME280;34033;48.672;9.376;2022-10-17T08:11:43;99294.44;;;16.71;73.77
13312;BME280;34033;48.672;9.376;2022-10-17T08:14:10;99291.59;;;16.81;73.10
13312;BME280;34033;48.672;9.376;2022-10-17T08:16:35;99292.72;;;16.94;73.03
13312;BME280;34033;48.672;9.376;2022-10-17T08:19:02;99293.47;;;17.02;72.38
13312;BME280;34033;48.672;9.376;2022-10-17T08:21:27;99288.56;;;17.13;72.42
13312;BME280;34033;48.672;9.376;2022-10-17T08:23:53;99284.44;;;17.25;72.12
13312;BME280;34033;48.672;9.376;2022-10-17T08:26:18;99288.13;;;17.15;71.19
13312;BME280;34033;48.672;9.376;2022-10-17T08:28:45;99289.38;;;17.10;71.80
13312;BME280;34033;48.672;9.376;2022-10-17T08:31:14;99286.16;;;17.12;71.74
13312;BME280;34033;48.672;9.376;2022-10-17T08:33:42;99283.72;;;17.14;72.59
13312;BME280;34033;48.672;9.376;2022-10-17T08:36:08;99300.19;;;17.22;72.30
13312;BME280;34033;48.672;9.376;2022-10-17T08:38:35;99294.94;;;17.24;71.41
13312;BME280;34033;48.672;9.376;2022-10-17T08:41:04;99294.50;;;17.29;71.75
13312;BME280;34033;48.672;9.376;2022-10-17T08:46:07;99296.03;;;17.41;72.35
13312;BME280;34033;48.672;9.376;2022-10-17T08:48:41;99302.06;;;17.43;72.27
13312;BME280;34033;48.672;9.376;2022-10-17T08:51:20;99301.16;;;17.57;72.05
13312;BME280;34033;48.672;9.376;2022-10-17T08:54:15;99302.66;;;17.72;71.75
13312;BME280;34033;48.672;9.376;2022-10-17T08:56:44;99307.03;;;17.80;71.86
13312;BME280;34033;48.672;9.376;2022-10-17T08:59:12;99301.63;;;17.96;71.36
13312;BME280;34033;48.672;9.376;2022-10-17T09:06:53;99291.44;;;18.40;69.99
13312;BME280;34033;48.672;9.376;2022-10-17T09:15:33;99301.44;;;18.82;68.95
13312;BME280;34033;48.672;9.376;2022-10-17T09:20:46;99301.69;;;18.94;68.33
13312;BME280;34033;48.672;9.376;2022-10-17T09:25:47;99290.66;;;19.27;67.28
13312;BME280;34033;48.672;9.376;2022-10-17T09:33:32;99287.19;;;19.42;66.24
13312;BME280;34033;48.672;9.376;2022-10-17T09:35:59;99291.97;;;19.49;66.02
13312;BME280;34033;48.672;9.376;2022-10-17T09:38:33;99285.31;;;19.59;65.86
13312;BME280;34033;48.672;9.376;2022-10-17T09:41:01;99289.97;;;19.73;65.16
13312;BME280;34033;48.672;9.376;2022-10-17T09:43:26;99286.94;;;19.83;64.85
13312;BME280;34033;48.672;9.376;2022-10-17T09:46:29;99285.94;;;19.93;64.97
13312;BME280;34033;48.672;9.376;2022-10-17T09:49:08;99292.72;;;19.99;64.63
13312;BME280;34033;48.672;9.376;2022-10-17T09:51:37;99293.88;;;20.02;63.13
13312;BME280;34033;48.672;9.376;2022-10-17T09:54:07;99284.81;;;20.11;62.95
13312;BME280;34033;48.672;9.376;2022-10-17T09:56:58;99284.69;;;20.18;61.93
13312;BME280;34033;48.672;9.376;2022-10-17T09:59:36;99282.19;;;20.20;62.25
13312;BME280;34033;48.672;9.376;2022-10-17T10:02:20;99275.56;;;20.26;61.70
13312;BME280;34033;48.672;9.376;2022-10-17T10:05:01;99274.69;;;20.29;61.27
13312;BME280;34033;48.672;9.376;2022-10-17T10:07:30;99277.09;;;20.31;61.51
13312;BME280;34033;48.672;9.376;2022-10-17T10:09:58;99278.31;;;20.33;62.07
13312;BME280;34033;48.672;9.376;2022-10-17T10:12:27;99275.31;;;20.40;61.71
13312;BME280;34033;48.672;9.376;2022-10-17T10:14:54;99269.56;;;20.44;61.74
13312;BME280;34033;48.672;9.376;2022-10-17T10:19:53;99282.94;;;20.63;61.20
13312;BME280;34033;48.672;9.376;2022-10-17T10:22:20;99280.84;;;20.67;61.31
13312;BME280;34033;48.672;9.376;2022-10-17T10:27:35;99273.66;;;20.79;60.18
13312;BME280;34033;48.672;9.376;2022-10-17T10:30:01;99267.75;;;20.90;60.97
13312;BME280;34033;48.672;9.376;2022-10-17T10:32:33;99265.84;;;21.03;61.37
13312;BME280;34033;48.672;9.376;2022-10-17T10:35:17;99271.28;;;21.13;61.51
13312;BME280;34033;48.672;9.376;2022-10-17T10:37:46;99278.34;;;21.25;60.56
13312;BME280;34033;48.672;9.376;2022-10-17T10:40:26;99278.72;;;21.43;60.69
13312;BME280;34033;48.672;9.376;2022-10-17T10:42:55;99268.75;;;21.51;59.81
13312;BME280;34033;48.672;9.376;2022-10-17T10:45:25;99276.56;;;21.63;59.75
13312;BME280;34033;48.672;9.376;2022-10-17T10:47:56;99281.28;;;21.70;59.06
13312;BME280;34033;48.672;9.376;2022-10-17T10:50:30;99276.81;;;21.85;60.27
13312;BME280;34033;48.672;9.376;2022-10-17T10:55:59;99262.84;;;22.07;60.41
13312;BME280;34033;48.672;9.376;2022-10-17T11:01:28;99282.41;;;22.21;59.17
13312;BME280;34033;48.672;9.376;2022-10-17T11:04:04;99267.50;;;22.30;59.20
13312;BME280;34033;48.672;9.376;2022-10-17T11:06:35;99274.38;;;22.32;56.70
13312;BME280;34033;48.672;9.376;2022-10-17T11:11:43;99265.59;;;22.39;59.10
13312;BME280;34033;48.672;9.376;2022-10-17T11:14:17;99263.25;;;22.51;59.37
13312;BME280;34033;48.672;9.376;2022-10-17T11:19:29;99261.06;;;22.83;58.31
13312;BME280;34033;48.672;9.376;2022-10-17T11:22:08;99259.84;;;22.97;57.63
13312;BME280;34033;48.672;9.376;2022-10-17T11:27:04;99260.19;;;23.24;56.99
13312;BME280;34033;48.672;9.376;2022-10-17T11:29:37;99254.59;;;23.34;55.79
13312;BME280;34033;48.672;9.376;2022-10-17T11:32:11;99247.84;;;23.40;55.03
13312;BME280;34033;48.672;9.376;2022-10-17T11:34:44;99252.75;;;23.40;54.77
13312;BME280;34033;48.672;9.376;2022-10-17T11:37:16;99260.97;;;23.38;54.66
13312;BME280;34033;48.672;9.376;2022-10-17T11:39:56;99243.41;;;23.39;54.46
13312;BME280;34033;48.672;9.376;2022-10-17T11:42:31;99253.44;;;23.44;55.18
13312;BME280;34033;48.672;9.376;2022-10-17T11:45:07;99246.50;;;23.57;55.83
13312;BME280;34033;48.672;9.376;2022-10-17T11:47:38;99247.50;;;23.76;55.52
13312;BME280;34033;48.672;9.376;2022-10-17T11:50:34;99246.41;;;23.95;55.38
13312;BME280;34033;48.672;9.376;2022-10-17T11:53:22;99242.56;;;24.24;54.56
13312;BME280;34033;48.672;9.376;2022-10-17T11:55:49;99242.69;;;24.42;53.76
13312;BME280;34033;48.672;9.376;2022-10-17T11:58:41;99244.41;;;24.61;54.22
13312;BME280;34033;48.672;9.376;2022-10-17T12:01:45;99238.81;;;24.79;52.87
13312;BME280;34033;48.672;9.376;2022-10-17T12:07:09;99236.50;;;25.18;53.11
13312;BME280;34033;48.672;9.376;2022-10-17T12:12:34;99234.09;;;25.56;50.05
13312;BME280;34033;48.672;9.376;2022-10-17T12:17:42;99234.63;;;25.73;47.88
13312;BME280;34033;48.672;9.376;2022-10-17T12:22:49;99234.03;;;25.96;48.71
13312;BME280;34033;48.672;9.376;2022-10-17T12:25:21;99221.75;;;26.05;47.24
13312;BME280;34033;48.672;9.376;2022-10-17T12:27:48;99221.09;;;26.19;48.10
13312;BME280;34033;48.672;9.376;2022-10-17T12:35:20;99215.69;;;26.57;44.51
13312;BME280;34033;48.672;9.376;2022-10-17T12:45:49;99212.66;;;26.52;41.16
13312;BME280;34033;48.672;9.376;2022-10-17T12:51:14;99213.47;;;26.16;40.07
13312;BME280;34033;48.672;9.376;2022-10-17T12:56:14;99226.53;;;26.17;40.82
13312;BME280;34033;48.672;9.376;2022-10-17T12:58:47;99211.75;;;26.19;40.58
13312;BME280;34033;48.672;9.376;2022-10-17T13:01:17;99214.44;;;26.31;40.86
13312;BME280;34033;48.672;9.376;2022-10-17T13:03:47;99213.66;;;26.31;40.83
13312;BME280;34033;48.672;9.376;2022-10-17T13:06:20;99211.59;;;26.40;41.30
13312;BME280;34033;48.672;9.376;2022-10-17T13:08:49;99214.75;;;26.51;40.29
13312;BME280;34033;48.672;9.376;2022-10-17T13:11:22;99219.63;;;26.69;41.23
13312;BME280;34033;48.672;9.376;2022-10-17T13:13:51;99211.47;;;26.86;40.27
13312;BME280;34033;48.672;9.376;2022-10-17T13:16:28;99215.44;;;26.97;41.21
13312;BME280;34033;48.672;9.376;2022-10-17T13:18:54;99218.44;;;27.12;40.42
13312;BME280;34033;48.672;9.376;2022-10-17T13:21:19;99223.94;;;27.25;39.64
13312;BME280;34033;48.672;9.376;2022-10-17T13:23:45;99221.47;;;27.42;40.25
13312;BME280;34033;48.672;9.376;2022-10-17T13:26:18;99220.16;;;27.52;39.72
13312;BME280;34033;48.672;9.376;2022-10-17T13:28:45;99221.41;;;27.60;38.85
13312;BME280;34033;48.672;9.376;2022-10-17T13:31:43;99226.66;;;27.61;39.69
13312;BME280;34033;48.672;9.376;2022-10-17T13:34:22;99225.56;;;27.59;39.49
13312;BME280;34033;48.672;9.376;2022-10-17T13:36:53;99237.78;;;27.35;38.76
13312;BME280;34033;48.672;9.376;2022-10-17T13:39:23;99236.06;;;27.29;39.96
13312;BME280;34033;48.672;9.376;2022-10-17T13:41:51;99237.34;;;27.28;38.39
13312;BME280;34033;48.672;9.376;2022-10-17T13:44:23;99235.63;;;27.21;37.35
13312;BME280;34033;48.672;9.376;2022-10-17T13:46:49;99246.13;;;27.24;37.97
13312;BME280;34033;48.672;9.376;2022-10-17T13:49:26;99242.50;;;27.15;37.24
13312;BME280;34033;48.672;9.376;2022-10-17T13:51:55;99235.34;;;27.10;37.80
13312;BME280;34033;48.672;9.376;2022-10-17T13:54:32;99244.28;;;27.12;38.58
13312;BME280;34033;48.672;9.376;2022-10-17T13:56:59;99242.75;;;27.26;38.37
13312;BME280;34033;48.672;9.376;2022-10-17T13:59:35;99234.22;;;27.40;38.13
13312;BME280;34033;48.672;9.376;2022-10-17T14:02:02;99240.72;;;27.59;37.66
13312;BME280;34033;48.672;9.376;2022-10-17T14:04:27;99241.69;;;27.80;37.63
13312;BME280;34033;48.672;9.376;2022-10-17T14:06:53;99232.53;;;27.67;36.87
13312;BME280;34033;48.672;9.376;2022-10-17T14:09:26;99237.31;;;27.70;37.02
13312;BME280;34033;48.672;9.376;2022-10-17T14:12:09;99232.09;;;27.59;36.91
13312;BME280;34033;48.672;9.376;2022-10-17T14:14:37;99236.69;;;27.66;37.22
13312;BME280;34033;48.672;9.376;2022-10-17T14:17:13;99229.66;;;27.67;37.41
13312;BME280;34033;48.672;9.376;2022-10-17T14:19:39;99235.94;;;27.80;38.08
13312;BME280;34033;48.672;9.376;2022-10-17T14:22:26;99234.19;;;27.83;37.83
13312;BME280;34033;48.672;9.376;2022-10-17T14:24:52;99238.16;;;27.85;37.44
13312;BME280;34033;48.672;9.376;2022-10-17T14:29:54;99258.47;;;27.82;36.93
13312;BME280;34033;48.672;9.376;2022-10-17T14:32:20;99260.34;;;27.85;37.33
13312;BME280;34033;48.672;9.376;2022-10-17T14:34:51;99274.50;;;27.64;40.68
13312;BME280;34033;48.672;9.376;2022-10-17T14:39:58;99271.63;;;27.64;42.07
13312;BME280;34033;48.672;9.376;2022-10-17T14:42:24;99263.03;;;27.64;42.54
13312;BME280;34033;48.672;9.376;2022-10-17T14:44:51;99261.31;;;27.58;42.63
13312;BME280;34033;48.672;9.376;2022-10-17T14:47:24;99266.13;;;27.43;43.02
13312;BME280;34033;48.672;9.376;2022-10-17T14:50:05;99264.81;;;27.62;43.00
13312;BME280;34033;48.672;9.376;2022-10-17T14:52:32;99251.97;;;27.72;42.84
13312;BME280;34033;48.672;9.376;2022-10-17T14:55:11;99257.06;;;27.77;42.36
13312;BME280;34033;48.672;9.376;2022-10-17T14:57:44;99260.06;;;27.83;42.46
13312;BME280;34033;48.672;9.376;2022-10-17T15:00:14;99265.84;;;27.97;43.12
13312;BME280;34033;48.672;9.376;2022-10-17T15:02:40;99260.66;;;28.10;42.78
13312;BME280;34033;48.672;9.376;2022-10-17T15:05:06;99269.44;;;28.07;41.73
13312;BME280;34033;48.672;9.376;2022-10-17T15:07:31;99270.88;;;28.11;42.41